Time;durP1;ratioP1;P1;durP2;ratioP2;P2;SDS_P1;SDS_P2;PMS_P1;PMS_P2;Temp;Humidity;BMP_temperature;BMP_pressure;BME280_temperature;BME280_humidity;BME280_pressure;Samples;Min_cycle;Max_cycle;Signal;HPM_P1;HPM_P2
2021/01/25 00:00:18;;;;;;;12.23;7.03;;;2.10;99.90;;;;;;5051684;28;20074;-68
2021/01/25 00:02:43;;;;;;;8.65;6.95;;;2.10;99.90;;;;;;5052839;28;20047;-68
2021/01/25 00:05:10;;;;;;;13.48;6.95;;;2.10;99.90;;;;;;5052723;28;20025;-68
2021/01/25 00:07:36;;;;;;;14.18;7.25;;;2.10;99.90;;;;;;5051182;28;20108;-68
2021/01/25 00:10:03;;;;;;;15.52;8.73;;;2.10;99.90;;;;;;5051992;28;20380;-68
2021/01/25 00:12:28;;;;;;;10.65;8.50;;;2.00;99.90;;;;;;5051996;28;20032;-68
2021/01/25 00:14:54;;;;;;;12.05;8.65;;;2.00;99.90;;;;;;5051255;28;20108;-68
2021/01/25 00:17:20;;;;;;;14.02;8.20;;;2.00;99.90;;;;;;5051849;28;20029;-68
2021/01/25 00:19:46;;;;;;;24.10;10.77;;;2.00;99.90;;;;;;5051058;28;20021;-67
2021/01/25 00:22:11;;;;;;;11.40;9.25;;;1.90;99.90;;;;;;5043093;28;20037;-68
2021/01/25 00:24:37;;;;;;;15.40;9.40;;;1.90;99.90;;;;;;5046251;28;20029;-68
2021/01/25 00:27:03;;;;;;;16.33;9.85;;;1.90;99.90;;;;;;5051238;28;20028;-69
2021/01/25 00:29:28;;;;;;;14.18;10.25;;;1.80;99.90;;;;;;5051802;28;20086;-68
2021/01/25 00:31:54;;;;;;;13.85;8.57;;;1.80;99.90;;;;;;5051677;28;20017;-67
2021/01/25 00:34:21;;;;;;;13.57;8.80;;;1.80;99.90;;;;;;5051514;28;20029;-67
2021/01/25 00:36:46;;;;;;;16.52;9.10;;;1.80;99.90;;;;;;5051490;28;20025;-68
2021/01/25 00:39:12;;;;;;;12.07;8.50;;;1.80;99.90;;;;;;5051976;28;20033;-68
2021/01/25 00:41:37;;;;;;;13.85;9.60;;;1.70;99.90;;;;;;5051083;28;20161;-68
2021/01/25 00:44:03;;;;;;;14.65;8.50;;;1.80;99.90;;;;;;5051472;28;20025;-69
2021/01/25 00:46:29;;;;;;;17.17;9.85;;;1.70;99.90;;;;;;5051806;28;20045;-68
2021/01/25 00:48:54;;;;;;;12.40;8.73;;;1.70;99.90;;;;;;5051083;28;20025;-68
2021/01/25 00:51:20;;;;;;;14.20;9.70;;;1.70;99.90;;;;;;5052047;28;20090;-69
2021/01/25 00:53:45;;;;;;;12.77;9.27;;;1.70;99.90;;;;;;5051315;28;20025;-69
2021/01/25 00:56:11;;;;;;;13.60;9.55;;;1.60;99.90;;;;;;5050969;28;20060;-68
2021/01/25 00:58:38;;;;;;;17.75;9.88;;;1.70;99.90;;;;;;5051632;28;20025;-68
2021/01/25 01:01:03;;;;;;;14.73;9.52;;;1.60;99.90;;;;;;5051376;28;20358;-68
2021/01/25 01:03:29;;;;;;;18.80;10.30;;;1.70;99.90;;;;;;5051241;28;20035;-67
2021/01/25 01:05:54;;;;;;;13.23;8.75;;;1.60;99.90;;;;;;5051445;28;20009;-68
2021/01/25 01:08:20;;;;;;;19.77;9.18;;;1.60;99.90;;;;;;5051654;28;20461;-68
2021/01/25 01:10:46;;;;;;;13.50;8.70;;;1.70;99.90;;;;;;5050437;28;20021;-68
2021/01/25 01:13:12;;;;;;;12.65;8.23;;;1.70;99.90;;;;;;5051381;28;20028;-67
2021/01/25 01:15:37;;;;;;;12.48;8.38;;;1.70;99.90;;;;;;5051408;28;20109;-67
2021/01/25 01:18:03;;;;;;;14.93;9.23;;;1.70;99.90;;;;;;5050548;28;20059;-68
2021/01/25 01:20:28;;;;;;;13.68;8.93;;;1.60;99.90;;;;;;5051688;28;20110;-68
2021/01/25 01:22:54;;;;;;;17.98;8.65;;;1.60;99.90;;;;;;5036882;28;20482;-68
2021/01/25 01:25:20;;;;;;;13.23;9.30;;;1.60;99.90;;;;;;5050637;28;20041;-68
2021/01/25 01:27:45;;;;;;;12.68;8.88;;;1.60;99.90;;;;;;5051092;28;20025;-68
2021/01/25 01:30:12;;;;;;;16.70;10.10;;;1.70;99.90;;;;;;5052990;28;20546;-67
2021/01/25 01:32:38;;;;;;;12.18;9.10;;;1.60;99.90;;;;;;5042138;28;20390;-68
2021/01/25 01:35:05;;;;;;;15.85;9.55;;;1.70;99.90;;;;;;5034930;28;20014;-68
2021/01/25 01:37:31;;;;;;;18.15;10.70;;;1.70;99.90;;;;;;5037845;28;20033;-68
2021/01/25 01:39:59;;;;;;;16.75;11.20;;;1.60;99.90;;;;;;5053696;28;20429;-68
2021/01/25 01:42:25;;;;;;;16.45;10.65;;;1.60;99.90;;;;;;5041213;28;20047;-68
2021/01/25 01:44:51;;;;;;;16.48;10.57;;;1.60;99.90;;;;;;5053975;28;20025;-68
2021/01/25 01:47:21;;;;;;;11.02;9.13;;;1.60;99.90;;;;;;5054426;28;20523;-68
2021/01/25 01:49:49;;;;;;;14.68;9.68;;;1.60;99.90;;;;;;5046410;28;20049;-68
2021/01/25 01:52:15;;;;;;;18.00;10.52;;;1.70;99.90;;;;;;5050212;28;20481;-68
2021/01/25 01:54:41;;;;;;;14.27;9.82;;;1.70;99.90;;;;;;5055774;28;20083;-68
2021/01/25 01:57:07;;;;;;;12.23;9.93;;;1.70;99.90;;;;;;5054940;28;20029;-68
2021/01/25 01:59:36;;;;;;;15.15;9.93;;;1.70;99.90;;;;;;5053862;28;20029;-68
2021/01/25 02:02:02;;;;;;;17.35;10.98;;;1.70;99.90;;;;;;5054311;28;20120;-68
2021/01/25 02:04:29;;;;;;;17.38;10.75;;;1.70;99.90;;;;;;5051224;28;20176;-67
2021/01/25 02:06:56;;;;;;;16.85;11.52;;;1.70;99.90;;;;;;5033838;28;20056;-68
2021/01/25 02:09:23;;;;;;;14.45;11.13;;;1.60;99.90;;;;;;5049324;28;20029;-67
2021/01/25 02:11:49;;;;;;;18.80;12.30;;;1.70;99.90;;;;;;5054185;28;20051;-67
2021/01/25 02:14:17;;;;;;;14.88;11.02;;;1.70;99.90;;;;;;5053924;28;20497;-67
2021/01/25 02:16:43;;;;;;;16.20;12.15;;;1.70;99.90;;;;;;5053982;28;20029;-68
2021/01/25 02:19:14;;;;;;;17.15;11.65;;;1.60;99.90;;;;;;5054483;28;20676;-68
2021/01/25 02:21:50;;;;;;;19.60;12.93;;;1.60;99.90;;;;;;5053437;28;20025;-67
2021/01/25 02:24:28;;;;;;;23.58;12.45;;;1.70;99.90;;;;;;5054209;28;20500;-68
2021/01/25 02:27:02;;;;;;;18.88;12.05;;;1.60;99.90;;;;;;5053324;28;20020;-68
2021/01/25 02:29:28;;;;;;;21.38;13.00;;;1.60;99.90;;;;;;5054145;28;20025;-67
2021/01/25 02:31:55;;;;;;;21.67;13.63;;;1.60;99.90;;;;;;5053676;28;20143;-68
2021/01/25 02:34:21;;;;;;;19.95;13.25;;;1.60;99.90;;;;;;5053217;28;20052;-67
2021/01/25 02:36:47;;;;;;;21.85;14.68;;;1.70;99.90;;;;;;5053554;28;20047;-67
2021/01/25 02:39:14;;;;;;;20.10;13.30;;;1.70;99.90;;;;;;5054124;28;20068;-68
2021/01/25 02:41:41;;;;;;;17.48;13.32;;;1.80;99.90;;;;;;5038250;28;20104;-68
2021/01/25 02:44:08;;;;;;;23.80;13.90;;;1.80;99.90;;;;;;5040236;28;20070;-68
2021/01/25 02:46:36;;;;;;;18.42;12.50;;;1.80;99.90;;;;;;5053673;28;20075;-67
2021/01/25 02:49:02;;;;;;;20.10;12.75;;;1.80;99.90;;;;;;5052626;28;20104;-68
2021/01/25 02:51:28;;;;;;;14.52;11.15;;;1.80;99.90;;;;;;5053945;28;20025;-68
2021/01/25 02:53:54;;;;;;;15.07;11.18;;;1.80;99.90;;;;;;5053421;28;20074;-67
2021/01/25 02:56:19;;;;;;;16.63;11.18;;;1.80;99.90;;;;;;5053208;28;20025;-67
2021/01/25 02:58:46;;;;;;;15.18;11.20;;;1.70;99.90;;;;;;5053073;28;20473;-67
2021/01/25 03:01:12;;;;;;;15.85;11.23;;;1.70;99.90;;;;;;5053318;28;20027;-67
2021/01/25 03:03:39;;;;;;;19.48;11.05;;;1.70;99.90;;;;;;5052640;28;20033;-67
2021/01/25 03:06:05;;;;;;;15.77;10.80;;;1.70;99.90;;;;;;5053077;28;20021;-67
2021/01/25 03:08:30;;;;;;;16.17;9.82;;;1.70;99.90;;;;;;5053434;28;20492;-67
2021/01/25 03:10:56;;;;;;;15.15;10.70;;;1.60;99.90;;;;;;5052158;28;20020;-67
2021/01/25 03:13:29;;;;;;;16.15;10.10;;;1.60;99.90;;;;;;5052601;28;20028;-69
2021/01/25 03:15:57;;;;;;;15.35;9.85;;;1.60;99.90;;;;;;5035916;28;20025;-68
2021/01/25 03:18:24;;;;;;;14.68;10.57;;;1.60;99.90;;;;;;5033369;28;20025;-68
2021/01/25 03:20:50;;;;;;;12.15;9.00;;;1.70;99.90;;;;;;5032853;28;20466;-68
2021/01/25 03:23:16;;;;;;;17.15;9.43;;;1.70;99.90;;;;;;5032460;28;20045;-68
2021/01/25 03:25:41;;;;;;;13.80;10.35;;;1.70;99.90;;;;;;5032780;28;20032;-68
2021/01/25 03:28:07;;;;;;;13.95;9.77;;;1.60;99.90;;;;;;5032908;28;20512;-68
2021/01/25 03:30:32;;;;;;;15.88;10.35;;;1.60;99.90;;;;;;5031805;28;20025;-68
2021/01/25 03:32:58;;;;;;;16.83;10.18;;;1.60;99.90;;;;;;5032499;28;20366;-68
2021/01/25 03:35:23;;;;;;;14.00;10.32;;;1.60;99.90;;;;;;5032622;28;20021;-68
2021/01/25 03:37:49;;;;;;;14.57;9.52;;;1.50;99.90;;;;;;5031627;28;20094;-68
2021/01/25 03:40:14;;;;;;;18.88;9.60;;;1.50;99.90;;;;;;5032445;28;20488;-67
2021/01/25 03:42:40;;;;;;;15.98;9.77;;;1.50;99.90;;;;;;5041160;28;20032;-67
2021/01/25 03:45:07;;;;;;;17.27;9.68;;;1.50;99.90;;;;;;5051774;28;20028;-67
2021/01/25 03:47:33;;;;;;;17.02;10.00;;;1.50;99.90;;;;;;5052254;28;20052;-68
2021/01/25 03:49:58;;;;;;;13.30;9.32;;;1.50;99.90;;;;;;5051947;28;20027;-68
2021/01/25 03:52:24;;;;;;;15.27;10.38;;;1.50;99.90;;;;;;5051509;28;20562;-67
2021/01/25 03:54:50;;;;;;;13.73;10.27;;;1.60;99.90;;;;;;5052234;28;20025;-67
2021/01/25 03:57:17;;;;;;;14.73;9.88;;;1.50;99.90;;;;;;5052359;28;20500;-68
2021/01/25 03:59:42;;;;;;;14.00;10.45;;;1.50;99.90;;;;;;5051164;28;20503;-67
2021/01/25 04:02:08;;;;;;;19.27;10.85;;;1.60;99.90;;;;;;5052048;28;20128;-67
2021/01/25 04:04:33;;;;;;;14.10;10.52;;;1.60;99.90;;;;;;5052486;28;20063;-67
2021/01/25 04:06:59;;;;;;;13.43;10.75;;;1.60;99.90;;;;;;5051267;28;20025;-67
2021/01/25 04:09:24;;;;;;;15.68;10.88;;;1.60;99.90;;;;;;5052224;28;20044;-67
2021/01/25 04:11:50;;;;;;;15.65;11.40;;;1.60;99.90;;;;;;5051889;28;20059;-67
2021/01/25 04:14:16;;;;;;;15.32;11.48;;;1.60;99.90;;;;;;5051238;28;20124;-67
2021/01/25 04:16:41;;;;;;;19.98;11.75;;;1.70;99.90;;;;;;5052157;28;20032;-68
2021/01/25 04:19:07;;;;;;;18.25;11.93;;;1.60;99.90;;;;;;5051639;28;20017;-67
2021/01/25 04:21:33;;;;;;;22.80;13.07;;;1.50;99.90;;;;;;5051938;28;20069;-67
2021/01/25 04:23:59;;;;;;;15.73;11.82;;;1.50;99.90;;;;;;5051773;28;20493;-67
2021/01/25 04:26:24;;;;;;;22.80;13.88;;;1.40;99.90;;;;;;5051218;28;20024;-66
2021/01/25 04:28:50;;;;;;;21.80;14.35;;;1.40;99.90;;;;;;5051662;28;20066;-67
2021/01/25 04:31:16;;;;;;;22.08;13.73;;;1.40;99.90;;;;;;5051835;28;20090;-67
2021/01/25 04:33:42;;;;;;;20.73;13.02;;;1.40;99.90;;;;;;5051201;28;20028;-67
2021/01/25 04:36:09;;;;;;;23.60;13.15;;;1.40;99.90;;;;;;5052444;28;20178;-67
2021/01/25 04:38:35;;;;;;;19.50;13.68;;;1.40;99.90;;;;;;5051767;28;20025;-67
2021/01/25 04:41:01;;;;;;;26.50;14.85;;;1.40;99.90;;;;;;5041937;28;20140;-67
2021/01/25 04:43:27;;;;;;;21.90;13.85;;;1.40;99.90;;;;;;5045965;28;20065;-67
2021/01/25 04:45:54;;;;;;;19.63;12.63;;;1.40;99.90;;;;;;5051078;28;20611;-68
2021/01/25 04:48:21;;;;;;;21.25;12.48;;;1.30;99.90;;;;;;5051097;28;20052;-66
2021/01/25 04:50:48;;;;;;;22.35;14.45;;;1.40;99.90;;;;;;5051271;28;20021;-67
2021/01/25 04:53:15;;;;;;;23.52;14.00;;;1.30;99.90;;;;;;5051534;28;20064;-67
2021/01/25 04:55:42;;;;;;;23.30;13.18;;;1.30;99.90;;;;;;5050439;28;20021;-67
2021/01/25 04:58:07;;;;;;;26.65;13.13;;;1.20;99.90;;;;;;5051693;28;20108;-67
2021/01/25 05:00:33;;;;;;;21.20;14.25;;;1.20;99.90;;;;;;5052618;28;20045;-67
2021/01/25 05:02:59;;;;;;;23.88;14.88;;;1.20;99.90;;;;;;5051207;28;20041;-69
2021/01/25 05:05:24;;;;;;;20.58;13.98;;;1.20;99.90;;;;;;5053247;28;20096;-66
2021/01/25 05:07:50;;;;;;;21.67;13.65;;;1.10;99.90;;;;;;5054854;28;20112;-68
2021/01/25 05:10:15;;;;;;;20.83;13.55;;;1.10;99.90;;;;;;5054607;28;20104;-67
2021/01/25 05:12:45;;;;;;;21.92;13.70;;;1.10;99.90;;;;;;5054506;28;20017;-67
2021/01/25 05:15:29;;;;;;;17.30;12.32;;;1.00;99.90;;;;;;5055139;28;20029;-67
2021/01/25 05:18:02;;;;;;;21.30;13.57;;;1.00;99.90;;;;;;5054787;28;20028;-67
2021/01/25 05:20:30;;;;;;;22.42;13.85;;;1.00;99.90;;;;;;5054918;28;20025;-69
2021/01/25 05:22:58;;;;;;;21.20;13.32;;;0.90;99.90;;;;;;5053013;28;20033;-67
2021/01/25 05:25:35;;;;;;;23.25;14.38;;;0.90;99.90;;;;;;5055026;28;20032;-67
2021/01/25 05:28:01;;;;;;;22.42;13.45;;;0.90;99.90;;;;;;5054768;28;20072;-68
2021/01/25 05:30:28;;;;;;;21.23;13.93;;;0.90;99.90;;;;;;5054406;28;20048;-68
2021/01/25 05:32:56;;;;;;;23.75;13.25;;;0.80;99.90;;;;;;5054528;28;20063;-69
2021/01/25 05:35:27;;;;;;;22.35;14.15;;;0.80;99.90;;;;;;5047093;28;20355;-69
2021/01/25 05:37:58;;;;;;;28.27;14.55;;;0.80;99.90;;;;;;5048430;28;20028;-68
2021/01/25 05:40:26;;;;;;;24.25;14.57;;;0.80;99.90;;;;;;5051417;28;20063;-69
2021/01/25 05:42:52;;;;;;;23.98;15.00;;;0.70;99.90;;;;;;5044665;28;20033;-69
2021/01/25 05:45:19;;;;;;;28.05;15.27;;;0.70;99.90;;;;;;5053930;28;20059;-67
2021/01/25 05:47:53;;;;;;;29.92;15.63;;;0.60;99.90;;;;;;5054519;28;20044;-68
2021/01/25 05:50:28;;;;;;;27.08;16.58;;;0.60;99.90;;;;;;5054755;28;20033;-68
2021/01/25 05:52:55;;;;;;;25.50;15.30;;;0.70;99.90;;;;;;5053777;28;20056;-68
2021/01/25 05:55:21;;;;;;;28.85;14.95;;;0.60;99.90;;;;;;5054504;28;20021;-68
2021/01/25 05:57:47;;;;;;;24.10;15.52;;;0.60;99.90;;;;;;5053814;28;20032;-68
2021/01/25 06:00:13;;;;;;;23.85;14.68;;;0.50;99.90;;;;;;5054670;28;20025;-68
2021/01/25 06:02:46;;;;;;;24.55;14.52;;;0.50;99.90;;;;;;5054084;28;20037;-69
2021/01/25 06:05:34;;;;;;;30.17;15.98;;;0.50;99.90;;;;;;5054155;28;20029;-68
2021/01/25 06:08:20;;;;;;;26.55;14.98;;;0.40;99.90;;;;;;5027854;28;20017;-68
2021/01/25 06:11:28;;;;;;;25.45;14.05;;;0.40;99.90;;;;;;5053831;28;20382;-68
2021/01/25 06:13:56;;;;;;;23.65;14.38;;;0.30;99.90;;;;;;4991822;28;20078;-69
2021/01/25 06:16:25;;;;;;;21.08;14.05;;;0.30;99.90;;;;;;4992637;28;20026;-68
2021/01/25 06:18:59;;;;;;;21.00;14.23;;;0.30;99.90;;;;;;5022540;28;20037;-68
2021/01/25 06:21:32;;;;;;;21.95;14.05;;;0.20;99.90;;;;;;5044506;28;20388;-68
2021/01/25 06:24:01;;;;;;;22.45;14.43;;;0.20;99.90;;;;;;5044327;28;20120;-67
2021/01/25 06:26:27;;;;;;;21.38;14.48;;;0.10;99.90;;;;;;5049461;28;20470;-67
2021/01/25 06:28:53;;;;;;;22.45;14.55;;;0.20;99.90;;;;;;5051942;28;20037;-66
2021/01/25 06:31:20;;;;;;;25.92;14.43;;;0.10;99.90;;;;;;5048999;28;20041;-67
2021/01/25 06:33:49;;;;;;;22.65;13.63;;;0.00;99.90;;;;;;5050907;28;20084;-67
2021/01/25 06:36:17;;;;;;;25.17;14.32;;;0.00;99.90;;;;;;5046380;28;20047;-66
2021/01/25 06:38:44;;;;;;;22.33;14.18;;;0.00;99.90;;;;;;5049452;28;20025;-67
2021/01/25 06:41:14;;;;;;;29.05;16.05;;;0.00;99.90;;;;;;5048456;28;20100;-67
2021/01/25 06:43:41;;;;;;;28.10;15.20;;;-0.10;99.90;;;;;;5044571;28;20045;-67
2021/01/25 06:46:07;;;;;;;25.88;15.55;;;-0.10;99.90;;;;;;5051973;28;20295;-67
2021/01/25 06:48:34;;;;;;;33.78;16.75;;;-0.10;99.90;;;;;;5051282;28;20083;-67
2021/01/25 06:51:01;;;;;;;26.63;16.63;;;-0.10;99.90;;;;;;5046790;28;20465;-67
2021/01/25 06:53:29;;;;;;;29.33;16.85;;;-0.20;99.90;;;;;;5050630;28;20021;-66
2021/01/25 06:56:00;;;;;;;27.10;16.58;;;-0.20;99.90;;;;;;5047840;28;20017;-67
2021/01/25 06:58:30;;;;;;;26.83;15.98;;;-0.20;99.90;;;;;;5051166;28;20499;-69
2021/01/25 07:00:56;;;;;;;28.42;16.80;;;-0.20;99.90;;;;;;5049368;28;20067;-67
2021/01/25 07:03:22;;;;;;;31.67;17.40;;;-0.20;99.90;;;;;;5052097;28;20056;-67
2021/01/25 07:05:50;;;;;;;28.65;17.38;;;-0.20;99.90;;;;;;5049537;28;20064;-67
2021/01/25 07:08:23;;;;;;;26.85;15.77;;;-0.30;99.90;;;;;;5049422;28;20739;-67
2021/01/25 07:11:04;;;;;;;31.42;17.23;;;-0.30;99.90;;;;;;5047790;28;20048;-67
2021/01/25 07:13:30;;;;;;;;;;;-0.40;99.90;;;;;;5049495;28;20025;-67
2021/01/25 07:15:56;;;;;;;29.50;15.95;;;-0.40;99.90;;;;;;5048790;28;19905;-67
2021/01/25 07:18:24;;;;;;;31.63;17.05;;;-0.40;99.90;;;;;;5051580;28;20070;-67
2021/01/25 07:20:52;;;;;;;30.20;17.17;;;-0.40;99.90;;;;;;5050735;28;20044;-67
2021/01/25 07:23:20;;;;;;;30.23;16.40;;;-0.40;99.90;;;;;;5050993;28;20497;-67
2021/01/25 07:25:52;;;;;;;30.45;16.48;;;-0.40;99.90;;;;;;5048321;28;20378;-67
2021/01/25 07:28:17;;;;;;;29.63;17.17;;;-0.40;99.90;;;;;;5046223;28;20045;-67
2021/01/25 07:30:43;;;;;;;30.52;17.25;;;-0.50;99.90;;;;;;5048404;28;20025;-68
2021/01/25 07:33:08;;;;;;;30.25;16.73;;;-0.50;99.90;;;;;;5048662;28;20112;-68
2021/01/25 07:35:34;;;;;;;29.92;17.30;;;-0.50;99.90;;;;;;5049779;28;20020;-67
2021/01/25 07:38:00;;;;;;;31.58;16.45;;;-0.60;99.90;;;;;;5048203;28;20769;-67
2021/01/25 07:40:25;;;;;;;25.58;15.25;;;-0.50;99.90;;;;;;5049347;28;20786;-68
2021/01/25 07:42:52;;;;;;;26.17;15.32;;;-0.50;99.90;;;;;;5046385;28;20489;-68
2021/01/25 07:45:20;;;;;;;29.17;16.25;;;-0.60;99.90;;;;;;5047700;28;20496;-68
2021/01/25 07:47:46;;;;;;;25.95;15.23;;;-0.60;99.90;;;;;;5050696;28;20029;-67
2021/01/25 07:50:12;;;;;;;24.90;15.90;;;-0.60;99.90;;;;;;5048482;28;20534;-68
2021/01/25 07:52:38;;;;;;;29.45;15.73;;;-0.60;99.90;;;;;;5021441;28;20044;-67
2021/01/25 07:55:15;;;;;;;27.55;15.52;;;-0.60;99.90;;;;;;5032071;28;20481;-67
2021/01/25 07:57:44;;;;;;;25.00;15.10;;;-0.60;99.90;;;;;;5031454;28;20025;-68
2021/01/25 08:00:20;;;;;;;33.08;15.80;;;-0.60;99.90;;;;;;5032584;28;20057;-67
2021/01/25 08:03:11;;;;;;;25.77;14.35;;;-0.60;99.90;;;;;;5042548;28;20551;-67
2021/01/25 08:05:37;;;;;;;29.23;15.93;;;-0.60;99.90;;;;;;5032353;28;20025;-68
2021/01/25 08:08:06;;;;;;;32.78;16.38;;;-0.60;99.90;;;;;;5033554;28;20367;-68
2021/01/25 08:10:32;;;;;;;29.05;17.48;;;-0.60;99.90;;;;;;5033728;28;20101;-68
2021/01/25 08:13:00;;;;;;;28.50;15.48;;;-0.50;99.90;;;;;;5026847;28;20111;-68
2021/01/25 08:15:30;;;;;;;27.10;16.02;;;-0.50;99.90;;;;;;5022696;28;20021;-69
2021/01/25 08:18:02;;;;;;;25.65;15.43;;;-0.50;99.90;;;;;;5032039;28;20473;-69
2021/01/25 08:20:31;;;;;;;25.70;15.23;;;-0.40;99.90;;;;;;5032931;28;20056;-68
2021/01/25 08:23:01;;;;;;;25.37;14.10;;;-0.40;99.90;;;;;;5045455;28;20079;-68
2021/01/25 08:25:28;;;;;;;27.05;15.60;;;-0.40;99.90;;;;;;5044353;28;20028;-68
2021/01/25 08:28:16;;;;;;;24.60;15.63;;;-0.40;99.90;;;;;;5046148;28;20067;-68
2021/01/25 08:30:47;;;;;;;27.58;15.15;;;-0.30;99.90;;;;;;5021788;28;20053;-69
2021/01/25 08:33:24;;;;;;;22.15;14.63;;;-0.30;99.90;;;;;;5029886;28;20022;-69
2021/01/25 08:35:50;;;;;;;27.38;16.60;;;-0.30;99.90;;;;;;5031662;28;20033;-68
2021/01/25 08:38:40;;;;;;;29.30;15.57;;;-0.20;99.90;;;;;;5032286;28;20017;-68
2021/01/25 08:41:22;;;;;;;29.27;16.52;;;-0.20;99.90;;;;;;5027806;28;20034;-68
2021/01/25 08:43:57;;;;;;;30.85;15.40;;;-0.10;99.90;;;;;;5052211;28;20036;-69
2021/01/25 08:46:33;;;;;;;29.42;16.88;;;-0.10;99.90;;;;;;5055631;28;20068;-66
2021/01/25 08:49:32;;;;;;;27.70;16.95;;;0.00;99.90;;;;;;5055765;28;20029;-66
2021/01/25 08:51:59;;;;;;;28.08;16.42;;;0.10;99.90;;;;;;5047584;28;20033;-67
2021/01/25 08:54:31;;;;;;;29.83;17.05;;;0.10;99.90;;;;;;5055406;28;20021;-68
2021/01/25 08:56:56;;;;;;;28.70;17.38;;;0.10;99.90;;;;;;5055636;28;20025;-68
2021/01/25 08:59:34;;;;;;;29.95;17.48;;;0.20;99.90;;;;;;5055675;28;20052;-68
2021/01/25 09:02:19;;;;;;;31.23;17.90;;;0.30;99.90;;;;;;5054567;28;20045;-67
2021/01/25 09:04:48;;;;;;;28.75;16.20;;;0.40;99.90;;;;;;5031868;28;20049;-67
2021/01/25 09:07:16;;;;;;;29.10;16.13;;;0.40;99.90;;;;;;5055674;28;20029;-67
2021/01/25 09:09:42;;;;;;;32.40;17.00;;;0.50;99.90;;;;;;5054727;28;20028;-67
2021/01/25 09:12:09;;;;;;;30.65;17.13;;;0.50;99.90;;;;;;5055608;28;20108;-68
2021/01/25 09:14:37;;;;;;;31.90;17.33;;;0.60;99.90;;;;;;5040455;28;20029;-68
2021/01/25 09:17:03;;;;;;;28.60;16.30;;;1.10;99.90;;;;;;5055086;28;20450;-68
2021/01/25 09:19:29;;;;;;;27.35;16.17;;;0.60;99.90;;;;;;5055267;28;20025;-67
2021/01/25 09:21:54;;;;;;;29.58;16.98;;;0.70;99.90;;;;;;5054357;28;20036;-67
2021/01/25 09:24:20;;;;;;;24.13;15.23;;;0.80;99.90;;;;;;5049037;28;20017;-67
2021/01/25 09:26:45;;;;;;;26.92;16.80;;;0.80;99.90;;;;;;5048885;28;20029;-67
2021/01/25 09:29:11;;;;;;;31.33;18.40;;;0.90;99.90;;;;;;5053691;28;20013;-68
2021/01/25 09:31:37;;;;;;;29.00;18.17;;;0.90;99.90;;;;;;5035678;28;20403;-68
2021/01/25 09:34:02;;;;;;;32.75;19.60;;;0.90;99.90;;;;;;5043533;28;20067;-67
2021/01/25 09:36:28;;;;;;;38.05;19.15;;;1.10;99.90;;;;;;5048455;28;20108;-67
2021/01/25 09:38:53;;;;;;;29.77;18.27;;;1.10;99.90;;;;;;5033388;28;20116;-67
2021/01/25 09:41:19;;;;;;;33.05;17.73;;;1.10;99.90;;;;;;5032743;28;20107;-67
2021/01/25 09:43:45;;;;;;;31.08;17.45;;;1.20;99.90;;;;;;5048690;28;20520;-67
2021/01/25 09:46:10;;;;;;;31.40;17.65;;;1.20;99.90;;;;;;5033979;28;20124;-68
2021/01/25 09:48:36;;;;;;;30.67;16.42;;;1.30;99.90;;;;;;5034931;28;20029;-68
2021/01/25 09:51:02;;;;;;;30.98;17.45;;;1.30;99.90;;;;;;5042628;28;20025;-68
2021/01/25 09:53:27;;;;;;;31.75;16.63;;;1.50;99.90;;;;;;5033530;28;20033;-68
2021/01/25 09:55:55;;;;;;;28.40;18.25;;;1.50;99.90;;;;;;5030562;28;20021;-70
2021/01/25 09:58:21;;;;;;;29.17;17.67;;;1.60;99.90;;;;;;5032829;28;20491;-70
2021/01/25 10:00:48;;;;;;;28.92;17.10;;;1.70;99.90;;;;;;5035290;28;20097;-71
2021/01/25 10:03:13;;;;;;;27.55;16.52;;;1.80;99.90;;;;;;5031486;28;20035;-71
2021/01/25 10:05:39;;;;;;;29.92;16.13;;;1.80;99.90;;;;;;5030665;28;20033;-71
2021/01/25 10:08:04;;;;;;;25.52;15.93;;;1.90;99.90;;;;;;5031446;28;20053;-72
2021/01/25 10:10:31;;;;;;;25.45;14.48;;;1.90;99.90;;;;;;5035396;28;20475;-71
2021/01/25 10:12:56;;;;;;;24.30;15.35;;;2.00;99.90;;;;;;5030095;28;20061;-71
2021/01/25 10:15:22;;;;;;;24.50;15.13;;;2.00;99.90;;;;;;5030216;28;20052;-73
2021/01/25 10:17:48;;;;;;;23.00;15.10;;;2.10;99.90;;;;;;5051056;28;20033;-72
2021/01/25 10:20:14;;;;;;;24.70;12.70;;;2.20;99.90;;;;;;5052694;28;20461;-72
2021/01/25 10:22:40;;;;;;;19.63;12.50;;;2.20;99.90;;;;;;5052707;28;20033;-72
2021/01/25 10:25:08;;;;;;;21.25;13.68;;;2.30;99.90;;;;;;5037618;28;20481;-73
2021/01/25 10:27:35;;;;;;;23.95;12.77;;;2.50;99.90;;;;;;5052628;28;20472;-72
2021/01/25 10:30:00;;;;;;;17.27;11.98;;;2.50;99.90;;;;;;5052695;28;20397;-73
2021/01/25 10:32:26;;;;;;;15.05;11.48;;;2.50;99.90;;;;;;5052094;28;20489;-68
2021/01/25 10:34:52;;;;;;;20.23;10.45;;;2.60;99.90;;;;;;5052839;28;20032;-73
2021/01/25 10:37:18;;;;;;;12.98;9.65;;;2.70;99.90;;;;;;5053242;28;20025;-72
2021/01/25 10:39:43;;;;;;;12.73;9.15;;;2.70;99.90;;;;;;5034895;28;20026;-66
2021/01/25 10:42:09;;;;;;;13.52;8.57;;;2.80;99.90;;;;;;5049627;28;20055;-66
2021/01/25 10:44:35;;;;;;;14.15;8.90;;;2.90;99.90;;;;;;5051533;28;20033;-67
2021/01/25 10:47:00;;;;;;;13.83;9.93;;;2.90;99.90;;;;;;5033480;28;540738;-67
2021/01/25 10:49:26;;;;;;;13.80;9.55;;;3.00;99.90;;;;;;5053591;28;20393;-68
2021/01/25 10:51:51;;;;;;;14.80;10.20;;;3.00;99.90;;;;;;5053250;28;20021;-67
2021/01/25 10:54:22;;;;;;;14.82;9.93;;;3.10;99.90;;;;;;5052764;28;20041;-67
2021/01/25 10:56:49;;;;;;;13.63;9.02;;;3.20;99.90;;;;;;5053299;28;20033;-66
2021/01/25 10:59:15;;;;;;;15.38;9.77;;;3.20;99.90;;;;;;5053505;28;20055;-66
2021/01/25 11:01:40;;;;;;;14.00;9.60;;;3.20;99.90;;;;;;5052576;28;20469;-67
2021/01/25 11:04:06;;;;;;;15.40;10.50;;;3.30;99.90;;;;;;5052951;28;20033;-69
2021/01/25 11:06:31;;;;;;;16.20;9.88;;;3.30;99.90;;;;;;5050641;28;20350;-67
2021/01/25 11:08:57;;;;;;;17.45;10.25;;;3.40;99.90;;;;;;5050974;28;20052;-67
2021/01/25 11:11:22;;;;;;;16.52;9.90;;;3.40;99.90;;;;;;5050205;28;20021;-66
2021/01/25 11:13:48;;;;;;;26.40;11.30;;;3.50;99.90;;;;;;5044618;28;20044;-67
2021/01/25 11:16:13;;;;;;;19.25;11.68;;;3.60;99.90;;;;;;5051281;28;20009;-67
2021/01/25 11:18:39;;;;;;;23.20;12.68;;;3.60;99.90;;;;;;5049348;28;20029;-67
2021/01/25 11:21:05;;;;;;;22.55;12.20;;;3.70;99.90;;;;;;5032981;28;20021;-67
2021/01/25 11:23:30;;;;;;;15.98;11.43;;;3.70;99.90;;;;;;5032013;28;20041;-66
2021/01/25 11:25:56;;;;;;;19.08;10.48;;;3.80;99.90;;;;;;5032693;28;20416;-67
2021/01/25 11:28:22;;;;;;;15.55;10.10;;;3.80;99.90;;;;;;5032044;28;20033;-66
2021/01/25 11:30:48;;;;;;;13.65;9.68;;;3.80;99.90;;;;;;5032683;28;20129;-66
2021/01/25 11:33:14;;;;;;;13.73;9.43;;;3.90;99.90;;;;;;5032810;28;20030;-66
2021/01/25 11:35:40;;;;;;;17.73;10.20;;;3.90;99.90;;;;;;5031949;28;20018;-66
2021/01/25 11:38:06;;;;;;;11.88;9.00;;;4.00;99.90;;;;;;5032605;28;20359;-66
2021/01/25 11:40:31;;;;;;;13.43;9.00;;;4.00;99.90;;;;;;5032872;28;20540;-66
2021/01/25 11:42:57;;;;;;;13.88;9.77;;;4.10;99.90;;;;;;5041954;28;20055;-67
2021/01/25 11:45:22;;;;;;;11.90;9.75;;;4.20;99.90;;;;;;5049927;28;20051;-68
2021/01/25 11:47:48;;;;;;;14.45;9.55;;;4.20;99.90;;;;;;5050447;28;20032;-67
2021/01/25 11:50:14;;;;;;;12.23;9.15;;;4.30;99.90;;;;;;5048911;28;20432;-67
2021/01/25 11:52:39;;;;;;;16.75;10.05;;;4.40;99.90;;;;;;5049944;28;20129;-66
2021/01/25 11:55:06;;;;;;;20.52;10.82;;;4.40;99.90;;;;;;5051139;28;20025;-67
2021/01/25 11:57:31;;;;;;;14.77;10.23;;;4.50;99.90;;;;;;5039224;28;20386;-66
2021/01/25 11:59:57;;;;;;;20.27;11.45;;;4.50;99.90;;;;;;5032192;28;20009;-66
2021/01/25 12:02:24;;;;;;;19.80;10.27;;;4.60;99.90;;;;;;5031026;28;20026;-67
2021/01/25 12:04:53;;;;;;;21.67;11.57;;;4.60;99.90;;;;;;5031303;28;20030;-67
2021/01/25 12:07:19;;;;;;;14.15;10.40;;;4.70;99.90;;;;;;5032320;28;20029;-67
2021/01/25 12:09:45;;;;;;;16.30;10.60;;;4.70;99.90;;;;;;5031908;28;20032;-67
2021/01/25 12:12:11;;;;;;;20.77;9.55;;;4.80;99.90;;;;;;5031489;28;20017;-68
2021/01/25 12:14:37;;;;;;;14.63;8.95;;;4.80;99.90;;;;;;5042649;28;20094;-67
2021/01/25 12:17:02;;;;;;;14.60;8.13;;;4.90;99.90;;;;;;5033404;28;20064;-67
2021/01/25 12:19:28;;;;;;;13.38;8.48;;;4.90;99.90;;;;;;5031277;28;20440;-67
2021/01/25 12:21:54;;;;;;;11.13;8.90;;;5.00;99.90;;;;;;5031369;28;20350;-67
2021/01/25 12:24:19;;;;;;;12.25;8.43;;;5.00;99.90;;;;;;5031841;28;20021;-67
2021/01/25 12:26:45;;;;;;;21.02;10.23;;;5.10;99.90;;;;;;5030379;28;20059;-67
2021/01/25 12:29:10;;;;;;;11.95;8.45;;;5.10;99.90;;;;;;5032066;28;20029;-67
2021/01/25 12:31:36;;;;;;;16.38;8.90;;;5.20;99.90;;;;;;5031303;28;20112;-67
2021/01/25 12:34:02;;;;;;;17.10;9.20;;;5.30;99.90;;;;;;5031617;28;20022;-67
2021/01/25 12:36:32;;;;;;;21.60;11.02;;;5.30;99.90;;;;;;5031885;28;20413;-68
2021/01/25 12:38:58;;;;;;;20.42;9.80;;;5.30;99.90;;;;;;5031356;28;20033;-68